createdAt,value
2023-04-18T00:01:10.912Z,102235.13
2023-04-18T00:03:39.030Z,102237.06
2023-04-18T00:06:05.932Z,102239.28
2023-04-18T00:08:33.685Z,102244.09
2023-04-18T00:11:00.108Z,102239.13
2023-04-18T00:13:28.366Z,102240.56
2023-04-18T00:15:55.118Z,102247.25
2023-04-18T00:18:21.969Z,102245.59
2023-04-18T00:20:48.397Z,102243.31
2023-04-18T00:23:15.178Z,102248.53
2023-04-18T00:25:41.897Z,102244.59
2023-04-18T00:28:08.321Z,102246.88
2023-04-18T00:30:34.808Z,102240.78
2023-04-18T00:33:04.561Z,102247.03
2023-04-18T00:35:31.946Z,102246.25
2023-04-18T00:37:58.525Z,102254.34
2023-04-18T00:40:25.512Z,102246.41
2023-04-18T00:42:52.348Z,102249.81
2023-04-18T00:45:18.866Z,102255.63
2023-04-18T00:47:45.413Z,102249.00
2023-04-18T00:50:12.761Z,102251.16
2023-04-18T00:52:41.999Z,102253.25
2023-04-18T00:55:09.108Z,102252.13
2023-04-18T00:57:36.416Z,102253.66
2023-04-18T01:00:09.819Z,102244.22
2023-04-18T01:02:37.736Z,102248.91
2023-04-18T01:05:04.538Z,102245.19
2023-04-18T01:07:33.354Z,102246.03
2023-04-18T01:10:01.525Z,102245.84
2023-04-18T01:12:27.980Z,102247.28
2023-04-18T01:14:54.527Z,102233.78
2023-04-18T01:17:22.391Z,102243.56
2023-04-18T01:19:51.091Z,102244.63
2023-04-18T01:22:19.289Z,102246.31
2023-04-18T01:24:45.886Z,102240.69
2023-04-18T01:27:13.565Z,102239.03
2023-04-18T01:29:40.849Z,102240.69
2023-04-18T01:32:07.572Z,102243.16
2023-04-18T01:34:33.977Z,102239.66
2023-04-18T01:37:00.474Z,102246.94
2023-04-18T01:39:26.955Z,102247.34
2023-04-18T01:41:53.394Z,102244.25
2023-04-18T01:44:19.882Z,102237.22
2023-04-18T01:46:46.488Z,102243.22
2023-04-18T01:49:13.124Z,102237.63
2023-04-18T01:51:43.080Z,102238.63
2023-04-18T01:54:09.534Z,102232.00
2023-04-18T01:56:35.934Z,102229.31
2023-04-18T01:59:02.369Z,102239.25
2023-04-18T02:01:28.827Z,102232.84
2023-04-18T02:03:58.243Z,102228.44
2023-04-18T02:06:24.795Z,102229.72
2023-04-18T02:08:51.351Z,102225.16
2023-04-18T02:11:18.096Z,102224.53
2023-04-18T02:13:45.108Z,102233.25
2023-04-18T02:16:14.819Z,102220.81
2023-04-18T02:18:44.224Z,102236.53
2023-04-18T02:21:11.186Z,102240.09
2023-04-18T02:23:37.725Z,102239.03
2023-04-18T02:26:04.145Z,102233.44
2023-04-18T02:28:30.746Z,102226.81
2023-04-18T02:30:57.179Z,102236.13
2023-04-18T02:33:23.584Z,102236.97
2023-04-18T02:35:51.579Z,102241.13
2023-04-18T02:38:18.168Z,102241.31
2023-04-18T02:40:44.589Z,102232.00
2023-04-18T02:43:10.999Z,102236.75
2023-04-18T02:45:37.480Z,102240.50
2023-04-18T02:48:04.710Z,102244.44
2023-04-18T02:50:33.079Z,102243.00
2023-04-18T02:52:59.596Z,102240.09
2023-04-18T02:55:35.067Z,102245.69
2023-04-18T02:58:01.530Z,102247.97
2023-04-18T03:00:52.703Z,102250.47
2023-04-18T03:03:28.353Z,102248.59
2023-04-18T03:06:03.486Z,102251.50
2023-04-18T03:08:32.380Z,102255.88
2023-04-18T03:10:58.952Z,102257.50
2023-04-18T03:13:27.594Z,102259.78
2023-04-18T03:15:54.628Z,102255.22
2023-04-18T03:18:21.844Z,102260.41
2023-04-18T03:20:49.416Z,102257.31
2023-04-18T03:23:16.681Z,102253.38
2023-04-18T03:25:43.699Z,102252.31
2023-04-18T03:28:10.173Z,102256.47
2023-04-18T03:30:36.713Z,102254.19
2023-04-18T03:33:05.172Z,102249.81
2023-04-18T03:35:32.327Z,102246.69
2023-04-18T03:37:59.505Z,102254.75
2023-04-18T03:40:30.194Z,102259.56
2023-04-18T03:43:02.314Z,102257.69
2023-04-18T03:45:29.510Z,102261.22
2023-04-18T03:47:56.325Z,102259.13
2023-04-18T03:50:25.538Z,102252.69
2023-04-18T03:52:54.279Z,102257.69
2023-04-18T03:55:20.958Z,102266.19
2023-04-18T03:57:48.149Z,102262.44
2023-04-18T04:00:22.876Z,102261.41
2023-04-18T04:02:59.166Z,102270.13
2023-04-18T04:05:25.851Z,102274.50
2023-04-18T04:07:52.461Z,102268.47
2023-04-18T04:10:18.937Z,102276.97
2023-04-18T04:12:47.204Z,102274.75
2023-04-18T04:15:14.071Z,102272.88
2023-04-18T04:17:47.280Z,102271.19
2023-04-18T04:20:14.916Z,102271.63
2023-04-18T04:22:41.456Z,102274.09
2023-04-18T04:25:08.892Z,102277.66
2023-04-18T04:27:39.023Z,102276.38
2023-04-18T04:30:08.827Z,102274.31
2023-04-18T04:32:36.256Z,102279.47
2023-04-18T04:35:03.350Z,102271.81
2023-04-18T04:37:30.462Z,102280.56
2023-04-18T04:40:08.710Z,102275.56
2023-04-18T04:42:49.017Z,102271.19
2023-04-18T04:45:23.178Z,102280.53
2023-04-18T04:47:49.730Z,102283.63
2023-04-18T04:50:18.329Z,102282.59
2023-04-18T04:52:44.842Z,102283.66
2023-04-18T04:55:11.360Z,102294.88
2023-04-18T04:57:37.946Z,102291.31
2023-04-18T05:00:20.838Z,102290.94
2023-04-18T05:02:55.712Z,102292.38
2023-04-18T05:05:23.325Z,102301.28
2023-04-18T05:07:49.784Z,102294.25
2023-04-18T05:10:16.275Z,102300.47
2023-04-18T05:12:43.469Z,102302.16
2023-04-18T05:15:10.567Z,102303.81
2023-04-18T05:17:37.081Z,102305.25
2023-04-18T05:20:04.824Z,102306.28
2023-04-18T05:22:31.307Z,102304.66
2023-04-18T05:24:57.692Z,102308.78
2023-04-18T05:27:24.115Z,102303.41
2023-04-18T05:29:50.923Z,102312.13
2023-04-18T05:32:17.379Z,102311.94
2023-04-18T05:34:44.120Z,102312.97
2023-04-18T05:37:10.792Z,102315.28
2023-04-18T05:39:37.309Z,102322.53
2023-04-18T05:42:03.891Z,102327.72
2023-04-18T05:44:30.369Z,102321.09
2023-04-18T05:46:56.969Z,102323.16
2023-04-18T05:49:23.636Z,102328.78
2023-04-18T05:51:50.054Z,102325.63
2023-04-18T05:54:17.405Z,102324.63
2023-04-18T05:56:44.554Z,102327.53
2023-04-18T05:59:11.167Z,102327.56
2023-04-18T06:01:38.028Z,102332.16
2023-04-18T06:04:04.841Z,102331.75
2023-04-18T06:06:31.482Z,102341.28
2023-04-18T06:08:57.954Z,102343.16
2023-04-18T06:11:24.404Z,102338.59
2023-04-18T06:13:50.940Z,102344.59
2023-04-18T06:16:17.406Z,102348.56
2023-04-18T06:18:43.855Z,102345.44
2023-04-18T06:21:10.313Z,102340.88
2023-04-18T06:23:38.396Z,102347.50
2023-04-18T06:26:04.970Z,102353.56
2023-04-18T06:28:31.470Z,102349.38
2023-04-18T06:30:57.836Z,102346.69
2023-04-18T06:33:24.336Z,102342.09
2023-04-18T06:35:51.120Z,102354.38
2023-04-18T06:38:17.581Z,102361.03
2023-04-18T06:40:44.416Z,102356.69
2023-04-18T06:43:10.835Z,102350.22
2023-04-18T06:45:39.117Z,102361.25
2023-04-18T06:48:05.894Z,102361.03
2023-04-18T06:50:32.508Z,102367.47
2023-04-18T06:52:58.955Z,102353.34
2023-04-18T06:55:25.460Z,102361.66
2023-04-18T06:57:51.990Z,102361.25
2023-04-18T07:00:18.643Z,102367.47
2023-04-18T07:02:45.248Z,102370.97
2023-04-18T07:05:11.905Z,102374.28
2023-04-18T07:07:38.436Z,102370.78
2023-04-18T07:10:05.934Z,102369.94
2023-04-18T07:12:32.411Z,102369.75
2023-04-18T07:14:58.813Z,102378.91
2023-04-18T07:17:25.293Z,102375.16
2023-04-18T07:19:51.730Z,102378.69
2023-04-18T07:22:18.727Z,102378.50
2023-04-18T07:24:45.337Z,102381.59
2023-04-18T07:27:11.849Z,102382.59
2023-04-18T07:29:38.328Z,102375.50
2023-04-18T07:32:06.228Z,102372.59
2023-04-18T07:34:36.130Z,102379.00
2023-04-18T07:37:02.546Z,102375.66
2023-04-18T07:39:28.930Z,102379.41
2023-04-18T07:41:55.422Z,102381.34
2023-04-18T07:44:21.864Z,102376.53
2023-04-18T07:46:48.577Z,102387.34
2023-04-18T07:49:15.299Z,102382.34
2023-04-18T07:51:42.396Z,102391.91
2023-04-18T07:54:10.947Z,102390.19
2023-04-18T07:56:37.358Z,102392.28
2023-04-18T07:59:04.198Z,102388.69
2023-04-18T08:01:30.934Z,102387.56
2023-04-18T08:04:01.433Z,102391.94
2023-04-18T08:06:29.043Z,102394.66
2023-04-18T08:08:55.599Z,102394.63
2023-04-18T08:11:22.051Z,102391.69
2023-04-18T08:13:48.530Z,102392.13
2023-04-18T08:16:17.357Z,102394.84
2023-04-18T08:18:44.554Z,102394.53
2023-04-18T08:21:11.029Z,102397.06
2023-04-18T08:23:37.446Z,102392.88
2023-04-18T08:26:04.036Z,102396.56
2023-04-18T08:28:30.566Z,102403.25
2023-04-18T08:30:57.032Z,102405.69
2023-04-18T08:33:24.237Z,102411.19
2023-04-18T08:35:51.463Z,102418.69
2023-04-18T08:38:19.075Z,102412.13
2023-04-18T08:40:45.967Z,102413.91
2023-04-18T08:43:14.999Z,102414.25
2023-04-18T08:45:45.734Z,102411.28
2023-04-18T08:48:16.216Z,102411.66
2023-04-18T08:50:43.716Z,102411.53
2023-04-18T08:53:10.553Z,102405.19
2023-04-18T08:55:37.627Z,102410.66
2023-04-18T08:58:07.190Z,102408.50
2023-04-18T09:00:34.071Z,102403.66
2023-04-18T09:03:02.861Z,102401.50
2023-04-18T09:05:29.635Z,102406.84
2023-04-18T09:07:56.647Z,102402.25
2023-04-18T09:10:32.818Z,102407.75
2023-04-18T09:13:03.055Z,102405.47
2023-04-18T09:15:30.261Z,102408.25
2023-04-18T09:17:58.985Z,102417.41
2023-04-18T09:20:27.115Z,102413.13
2023-04-18T09:22:57.641Z,102409.72
2023-04-18T09:25:29.801Z,102407.06
2023-04-18T09:28:00.940Z,102412.22
2023-04-18T09:30:33.709Z,102412.63
2023-04-18T09:33:01.510Z,102407.44
2023-04-18T09:35:28.152Z,102411.94
2023-04-18T09:37:54.878Z,102408.25
2023-04-18T09:40:21.579Z,102415.91
2023-04-18T09:42:48.218Z,102405.75
2023-04-18T09:45:15.906Z,102405.19
2023-04-18T09:47:42.581Z,102407.44
2023-04-18T09:50:10.898Z,102410.03
2023-04-18T09:52:40.344Z,102411.66
2023-04-18T09:55:09.086Z,102416.81
2023-04-18T09:57:40.655Z,102411.28
2023-04-18T10:00:14.439Z,102405.84
2023-04-18T10:02:56.599Z,102408.56
2023-04-18T10:05:27.294Z,102408.31
2023-04-18T10:07:55.041Z,102407.63
2023-04-18T10:10:21.802Z,102401.94
2023-04-18T10:12:50.985Z,102404.78
2023-04-18T10:15:22.253Z,102401.09
2023-04-18T10:18:04.418Z,102394.03
2023-04-18T10:20:33.371Z,102399.94
2023-04-18T10:22:59.978Z,102409.75
2023-04-18T10:25:38.678Z,102408.56
2023-04-18T10:28:09.266Z,102405.00
2023-04-18T10:30:41.817Z,102400.63
2023-04-18T10:33:30.338Z,102402.75
2023-04-18T10:35:57.977Z,102408.91
2023-04-18T10:38:24.729Z,102406.06
2023-04-18T10:40:51.230Z,102402.19
2023-04-18T10:43:17.658Z,102399.47
2023-04-18T10:45:44.911Z,102398.06
2023-04-18T10:48:25.525Z,102393.66
2023-04-18T10:51:13.648Z,102396.25
2023-04-18T10:53:48.228Z,102397.06
2023-04-18T10:56:15.772Z,102392.34
2023-04-18T10:58:49.037Z,102390.66
2023-04-18T11:01:24.522Z,102380.13
2023-04-18T11:03:51.709Z,102388.16
2023-04-18T11:06:19.322Z,102383.78
2023-04-18T11:08:46.601Z,102388.00
2023-04-18T11:11:13.583Z,102376.28
2023-04-18T11:13:59.332Z,102387.31
2023-04-18T11:16:30.985Z,102379.00
2023-04-18T11:18:57.488Z,102375.63
2023-04-18T11:21:31.689Z,102376.00
2023-04-18T11:23:58.498Z,102374.22
2023-04-18T11:26:26.358Z,102372.69
2023-04-18T11:28:58.963Z,102369.19
2023-04-18T11:31:25.565Z,102367.06
2023-04-18T11:33:52.224Z,102367.09
2023-04-18T11:36:18.811Z,102367.44
2023-04-18T11:38:45.500Z,102371.25
2023-04-18T11:41:15.816Z,102371.56
2023-04-18T11:43:44.854Z,102370.41
2023-04-18T11:46:13.280Z,102371.44
2023-04-18T11:48:42.295Z,102363.59
2023-04-18T11:51:32.324Z,102365.78
2023-04-18T11:53:58.813Z,102375.50
2023-04-18T11:56:25.326Z,102372.19
2023-04-18T11:58:51.945Z,102376.66
2023-04-18T12:01:20.269Z,102367.03
2023-04-18T12:04:03.957Z,102373.03
2023-04-18T12:06:51.318Z,102369.97
2023-04-18T12:09:18.739Z,102373.97
2023-04-18T12:11:58.016Z,102373.97
2023-04-18T12:14:24.515Z,102377.47
2023-04-18T12:16:51.716Z,102375.16
2023-04-18T12:19:20.807Z,102373.06
2023-04-18T12:22:00.433Z,102367.06
2023-04-18T12:24:32.241Z,102359.72
2023-04-18T12:26:59.596Z,102362.69
2023-04-18T12:29:27.762Z,102355.16
2023-04-18T12:31:54.505Z,102359.19
2023-04-18T12:34:21.383Z,102354.50
2023-04-18T12:36:48.850Z,102358.16
2023-04-18T12:39:15.580Z,102356.53
2023-04-18T12:41:43.734Z,102356.94
2023-04-18T12:44:10.221Z,102363.00
2023-04-18T12:46:36.773Z,102355.78
2023-04-18T12:49:03.846Z,102361.06
2023-04-18T12:51:31.431Z,102364.91
2023-04-18T12:53:57.829Z,102354.72
2023-04-18T12:56:24.266Z,102356.31
2023-04-18T12:58:50.828Z,102356.66
2023-04-18T13:01:17.467Z,102356.31
2023-04-18T13:03:48.674Z,102359.13
2023-04-18T13:06:20.282Z,102351.72
2023-04-18T13:08:47.703Z,102357.97
2023-04-18T13:11:14.099Z,102357.34
2023-04-18T13:13:40.730Z,102359.72
2023-04-18T13:16:07.312Z,102351.22
2023-04-18T13:18:33.929Z,102348.84
2023-04-18T13:21:00.361Z,102350.16
2023-04-18T13:23:26.860Z,102357.47
2023-04-18T13:25:53.328Z,102358.19
2023-04-18T13:28:19.966Z,102356.50
2023-04-18T13:30:46.669Z,102345.63
2023-04-18T13:33:13.114Z,102348.50
2023-04-18T13:35:41.543Z,102349.91
2023-04-18T13:38:07.950Z,102347.19
2023-04-18T13:40:34.381Z,102341.97
2023-04-18T13:43:00.848Z,102346.56
2023-04-18T13:45:28.019Z,102349.81
2023-04-18T13:47:54.672Z,102342.91
2023-04-18T13:50:21.504Z,102343.44
2023-04-18T13:52:49.196Z,102350.66
2023-04-18T13:55:16.170Z,102352.09
2023-04-18T13:57:42.582Z,102340.09
2023-04-18T14:00:09.867Z,102348.03
2023-04-18T14:02:40.471Z,102348.38
2023-04-18T14:05:07.468Z,102344.09
2023-04-18T14:07:33.953Z,102348.91
2023-04-18T14:10:00.372Z,102348.09
2023-04-18T14:12:26.859Z,102349.94
2023-04-18T14:14:53.332Z,102347.78
2023-04-18T14:17:19.769Z,102345.81
2023-04-18T14:19:46.418Z,102348.53
2023-04-18T14:22:12.837Z,102349.38
2023-04-18T14:24:39.233Z,102337.00
2023-04-18T14:27:05.699Z,102338.38
2023-04-18T14:29:32.099Z,102338.97
2023-04-18T14:31:58.517Z,102342.88
2023-04-18T14:34:25.578Z,102327.00
2023-04-18T14:36:51.963Z,102327.25
2023-04-18T14:39:18.534Z,102321.66
2023-04-18T14:41:45.973Z,102325.28
2023-04-18T14:44:13.590Z,102325.38
2023-04-18T14:46:40.212Z,102321.66
2023-04-18T14:49:06.737Z,102323.16
2023-04-18T14:51:33.261Z,102320.97
2023-04-18T14:53:59.759Z,102316.16
2023-04-18T14:56:26.454Z,102311.25
2023-04-18T14:58:52.858Z,102312.25
2023-04-18T15:01:19.387Z,102313.84
2023-04-18T15:03:46.277Z,102315.25
2023-04-18T15:06:12.928Z,102311.84
2023-04-18T15:08:39.364Z,102315.81
2023-04-18T15:11:07.338Z,102306.28
2023-04-18T15:13:34.892Z,102314.66
2023-04-18T15:16:01.422Z,102319.91
2023-04-18T15:18:27.883Z,102309.56
2023-04-18T15:20:54.734Z,102305.22
2023-04-18T15:23:21.427Z,102297.78
2023-04-18T15:25:47.911Z,102299.59
2023-04-18T15:28:16.123Z,102305.63
2023-04-18T15:30:42.614Z,102298.78
2023-04-18T15:33:09.201Z,102294.59
2023-04-18T15:35:35.969Z,102308.66
2023-04-18T15:38:02.757Z,102302.28
2023-04-18T15:40:29.208Z,102310.78
2023-04-18T15:42:57.620Z,102306.72
2023-04-18T15:45:24.030Z,102305.13
2023-04-18T15:47:50.781Z,102297.78
2023-04-18T15:50:17.477Z,102296.78
2023-04-18T15:52:44.141Z,102306.91
2023-04-18T15:55:13.225Z,102302.44
2023-04-18T15:57:41.874Z,102300.00
2023-04-18T16:00:16.078Z,102296.97
2023-04-18T16:02:46.698Z,102307.13
2023-04-18T16:05:13.813Z,102304.41
2023-04-18T16:07:42.095Z,102307.81
2023-04-18T16:10:10.248Z,102305.97
2023-04-18T16:12:37.833Z,102299.75
2023-04-18T16:15:08.935Z,102293.53
2023-04-18T16:17:36.570Z,102301.56
2023-04-18T16:20:03.653Z,102302.75
2023-04-18T16:22:30.085Z,102301.44
2023-04-18T16:24:56.497Z,102308.34
2023-04-18T16:27:22.926Z,102311.28
2023-04-18T16:29:49.589Z,102314.06
2023-04-18T16:32:16.197Z,102314.59
2023-04-18T16:34:42.662Z,102314.66
2023-04-18T16:37:09.129Z,102303.56
2023-04-18T16:39:35.525Z,102307.97
2023-04-18T16:42:03.424Z,102311.56
2023-04-18T16:44:30.652Z,102314.69
2023-04-18T16:46:57.153Z,102309.06
2023-04-18T16:49:24.164Z,102309.44
2023-04-18T16:51:51.094Z,102314.75
2023-04-18T16:54:17.967Z,102312.53
2023-04-18T16:56:45.016Z,102307.66
2023-04-18T16:59:11.620Z,102313.78
2023-04-18T17:01:38.208Z,102313.91
2023-04-18T17:04:05.049Z,102311.44
2023-04-18T17:06:32.509Z,102306.94
2023-04-18T17:08:58.961Z,102309.00
2023-04-18T17:11:26.364Z,102307.63
2023-04-18T17:13:52.823Z,102306.19
2023-04-18T17:16:19.297Z,102310.69
2023-04-18T17:18:46.448Z,102309.19
2023-04-18T17:21:12.877Z,102314.00
2023-04-18T17:23:41.826Z,102312.00
2023-04-18T17:26:09.242Z,102316.47
2023-04-18T17:28:36.379Z,102316.41
2023-04-18T17:31:03.291Z,102327.88
2023-04-18T17:33:30.270Z,102326.13
2023-04-18T17:35:57.210Z,102326.63
2023-04-18T17:38:23.754Z,102313.59
2023-04-18T17:41:00.684Z,102317.97
2023-04-18T17:43:27.283Z,102329.13
2023-04-18T17:45:53.825Z,102328.88
2023-04-18T17:48:20.262Z,102330.94
2023-04-18T17:50:46.948Z,102335.19
2023-04-18T17:53:13.561Z,102320.91
2023-04-18T17:55:40.800Z,102328.59
2023-04-18T17:58:07.319Z,102328.50
2023-04-18T18:00:33.746Z,102333.94
2023-04-18T18:03:01.707Z,102332.28
2023-04-18T18:05:28.325Z,102340.78
2023-04-18T18:07:56.134Z,102340.38
2023-04-18T18:10:23.707Z,102330.53
2023-04-18T18:12:50.418Z,102342.59
2023-04-18T18:15:17.970Z,102334.75
2023-04-18T18:17:45.018Z,102342.81
2023-04-18T18:20:11.737Z,102336.66
2023-04-18T18:22:38.202Z,102338.16
2023-04-18T18:25:07.906Z,102342.88
2023-04-18T18:27:34.328Z,102339.97
2023-04-18T18:30:00.755Z,102344.31
2023-04-18T18:32:27.178Z,102332.50
2023-04-18T18:34:53.779Z,102339.59
2023-04-18T18:37:21.876Z,102340.44
2023-04-18T18:39:48.915Z,102345.28
2023-04-18T18:42:16.230Z,102346.69
2023-04-18T18:44:42.779Z,102345.16
2023-04-18T18:47:09.209Z,102359.63
2023-04-18T18:49:36.050Z,102349.69
2023-04-18T18:52:04.779Z,102349.84
2023-04-18T18:54:31.597Z,102351.38
2023-04-18T18:56:59.299Z,102353.09
2023-04-18T18:59:25.717Z,102352.78
2023-04-18T19:01:52.991Z,102359.78
2023-04-18T19:04:19.725Z,102361.78
2023-04-18T19:06:46.362Z,102373.53
2023-04-18T19:09:12.880Z,102370.78
2023-04-18T19:11:39.426Z,102380.13
2023-04-18T19:14:05.894Z,102364.88
2023-04-18T19:16:33.882Z,102369.56
2023-04-18T19:19:00.470Z,102367.97
2023-04-18T19:21:27.133Z,102371.59
2023-04-18T19:23:53.552Z,102373.63
2023-04-18T19:26:19.965Z,102375.75
2023-04-18T19:28:46.529Z,102364.03
2023-04-18T19:31:12.969Z,102378.72
2023-04-18T19:33:39.480Z,102372.66
2023-04-18T19:36:05.979Z,102371.72
2023-04-18T19:38:33.868Z,102378.63
2023-04-18T19:41:00.286Z,102379.19
2023-04-18T19:43:27.366Z,102375.91
2023-04-18T19:45:55.254Z,102386.28
2023-04-18T19:48:21.901Z,102376.13
2023-04-18T19:50:49.537Z,102378.88
2023-04-18T19:53:16.344Z,102378.50
2023-04-18T19:55:45.334Z,102381.59
2023-04-18T19:58:11.761Z,102379.09
2023-04-18T20:00:38.407Z,102382.78
2023-04-18T20:03:05.074Z,102384.44
2023-04-18T20:05:31.853Z,102373.53
2023-04-18T20:07:58.417Z,102388.13
2023-04-18T20:10:24.834Z,102387.53
2023-04-18T20:12:51.601Z,102384.06
2023-04-18T20:15:18.204Z,102383.03
2023-04-18T20:17:45.468Z,102386.56
2023-04-18T20:20:12.261Z,102380.53
2023-04-18T20:22:41.824Z,102376.50
2023-04-18T20:25:08.834Z,102383.13
2023-04-18T20:27:35.228Z,102373.91
2023-04-18T20:30:01.709Z,102378.16
2023-04-18T20:32:28.221Z,102373.53
2023-04-18T20:34:54.679Z,102370.94
2023-04-18T20:37:21.677Z,102375.09
2023-04-18T20:39:48.188Z,102372.13
2023-04-18T20:42:14.697Z,102380.53
2023-04-18T20:44:46.596Z,102375.31
2023-04-18T20:47:15.255Z,102378.75
2023-04-18T20:49:42.631Z,102376.75
2023-04-18T20:52:14.190Z,102377.81
2023-04-18T20:54:41.710Z,102377.59
2023-04-18T20:57:08.335Z,102379.84
2023-04-18T20:59:34.770Z,102389.75
2023-04-18T21:02:01.508Z,102383.59
2023-04-18T21:04:28.206Z,102383.72
2023-04-18T21:06:54.850Z,102391.88
2023-04-18T21:09:21.462Z,102386.56
2023-04-18T21:11:47.950Z,102395.53
2023-04-18T21:14:17.097Z,102400.16
2023-04-18T21:16:44.248Z,102399.81
2023-04-18T21:19:11.047Z,102403.44
2023-04-18T21:21:37.481Z,102401.81
2023-04-18T21:24:04.685Z,102402.41
2023-04-18T21:26:31.078Z,102399.78
2023-04-18T21:29:01.237Z,102406.16
2023-04-18T21:31:30.132Z,102395.00
2023-04-18T21:33:58.219Z,102398.91
2023-04-18T21:36:26.970Z,102402.22
2023-04-18T21:38:54.392Z,102387.19
2023-04-18T21:41:21.127Z,102393.31
2023-04-18T21:43:48.257Z,102397.59
2023-04-18T21:46:15.600Z,102400.47
2023-04-18T21:48:44.221Z,102394.16
2023-04-18T21:51:12.098Z,102398.75
2023-04-18T21:53:38.810Z,102397.13
2023-04-18T21:56:06.205Z,102398.75
2023-04-18T21:58:32.998Z,102396.31
2023-04-18T22:00:59.757Z,102397.81
2023-04-18T22:03:28.618Z,102399.72
2023-04-18T22:06:20.852Z,102389.44
2023-04-18T22:08:48.214Z,102390.97
2023-04-18T22:11:15.638Z,102397.22
2023-04-18T22:13:45.317Z,102387.63
2023-04-18T22:16:17.596Z,102397.09
2023-04-18T22:18:44.293Z,102396.88
2023-04-18T22:21:11.253Z,102393.16
2023-04-18T22:23:37.706Z,102393.63
2023-04-18T22:26:04.079Z,102403.00
2023-04-18T22:28:30.737Z,102395.78
2023-04-18T22:30:57.220Z,102401.94
2023-04-18T22:33:24.220Z,102393.13
2023-04-18T22:35:50.749Z,102393.63
2023-04-18T22:38:17.543Z,102399.44
2023-04-18T22:40:44.245Z,102407.84
2023-04-18T22:43:10.817Z,102398.69
2023-04-18T22:45:37.363Z,102393.63
2023-04-18T22:48:04.077Z,102399.16
2023-04-18T22:50:30.521Z,102404.69
2023-04-18T22:52:57.334Z,102400.00
2023-04-18T22:55:23.894Z,102401.66
2023-04-18T22:57:50.251Z,102404.47
2023-04-18T23:00:16.802Z,102408.25
2023-04-18T23:02:43.562Z,102413.31
2023-04-18T23:05:11.489Z,102408.72
2023-04-18T23:07:37.926Z,102411.06
2023-04-18T23:10:06.272Z,102410.91
2023-04-18T23:12:32.746Z,102419.66
2023-04-18T23:14:59.143Z,102410.13
2023-04-18T23:17:25.679Z,102413.00
2023-04-18T23:19:52.112Z,102412.09
2023-04-18T23:22:18.527Z,102417.19
2023-04-18T23:24:45.620Z,102411.16
2023-04-18T23:27:12.083Z,102408.06
2023-04-18T23:29:39.027Z,102413.34
2023-04-18T23:32:05.734Z,102416.91
2023-04-18T23:34:32.114Z,102412.06
2023-04-18T23:36:58.621Z,102411.22
2023-04-18T23:39:28.029Z,102406.13
2023-04-18T23:41:54.451Z,102408.91
2023-04-18T23:44:20.952Z,102404.31
2023-04-18T23:46:48.224Z,102405.06
2023-04-18T23:49:15.652Z,102400.03
2023-04-18T23:51:42.735Z,102394.19
2023-04-18T23:54:09.137Z,102395.41
2023-04-18T23:56:35.570Z,102394.50
2023-04-18T23:59:02.006Z,102391.97
